Thornton Heath, United Kingdom
Current Conditions -  °F | °C
As of 11:20 AM on Thursday 23 Oct 2014 (Local Time) from EGKB Reporting Station
Few Clouds Few Clouds  
Wind Chill: 55°   Ceiling: Unl
Heat Index: 55°   Visibility: 6mi
Dew Point: 48°   Wind: 12mph
Humidity: 77%   Direction: 220°SW
Pressure: 30.12"   Gusts: NA
Location:  51.39°N, 0.12°W
Report Text: EGKB 231020Z 22010KT 9999 FEW030 13/09 Q1020
Loading
Personal Weather Stations






























Interactive Weather Map New forecast layout! Learn more

10-Day Weather Forecast

Advertisements
Track Severe Weather on mobile